Latest Weather Observations for Woolshed

IDQ60801

Issued at 11:01 pm EST Sunday 29 May 2016 (issued every 30 minutes, with the page automatically refreshed every 10 minutes)

About weather observations | Map of weather stations | Latest weather observations for QLD | Other Formats
Station Details ID: 033307 Name: WOOLSHED Lat: -19.42 Lon: 146.54 Height: 556.04 m
Data from the previous 72 hours. | See also: Recent months at Woolshed
Date/Time
EST
Temp
°C
App
Temp
°C
Dew
Point
Rel
Hum
%
Delta-T
°C
Wind Press
QNH
hPa
Press
MSL
hPa
Rain
since 9 am
mm
Dir
 
Spd
km/h
Gust
km/h
Spd
kts
Gust
kts
29/11:00pm 20.4 22.8 20.1 98 0.2 ENE 7 17 4 9 1020.3 1018.1 0.0
29/10:30pm 20.3 22.3 20.0 98 0.2 NE 9 19 5 10 1020.4 1018.2 0.0
29/10:00pm 20.2 22.6 19.7 97 0.3 NE 6 11 3 6 1020.3 1018.1 0.0
29/09:30pm 20.2 22.4 19.7 97 0.3 NE 7 17 4 9 1020.1 1017.9 0.0
29/09:00pm 20.3 22.6 19.8 97 0.3 NE 7 15 4 8 1020.2 1018.0 0.0
29/08:30pm 20.5 23.1 20.0 97 0.3 NE 6 13 3 7 1020.3 1018.1 0.0
29/08:00pm 20.7 23.4 20.2 97 0.3 NE 6 11 3 6 1019.9 1017.8 0.0
29/07:30pm 20.7 23.1 20.0 96 0.5 NNE 7 15 4 8 1019.7 1017.6 0.0
29/07:00pm 20.8 23.2 20.0 95 0.5 NNE 7 15 4 8 1019.5 1017.3 0.0
29/06:30pm 21.1 23.5 19.7 92 0.9 NNE 6 13 3 7 1019.1 1016.9 0.0
29/06:00pm 21.4 23.6 19.7 90 1.1 NNE 7 15 4 8 1018.8 1016.6 0.0
29/05:30pm 21.9 24.1 19.5 86 1.6 NE 7 15 4 8 1018.6 1016.4 0.0
29/05:00pm 22.4 24.0 19.2 82 2.1 NNE 9 15 5 8 1018.4 1016.2 0.0
29/04:30pm 22.5 23.6 18.9 80 2.3 NNE 11 19 6 10 1018.2 1016.0 0.0
29/04:00pm 22.9 23.9 18.7 77 2.7 NNE 11 19 6 10 1018.0 1015.9 0.0
29/03:30pm 24.5 25.7 18.2 68 4.1 NNE 9 19 5 10 1017.9 1015.7 0.0
29/03:00pm 24.5 25.4 17.5 65 4.5 NNE 9 20 5 11 1017.9 1015.7 0.0
29/02:30pm 27.0 27.4 16.3 52 6.8 NE 9 17 5 9 1017.6 1015.4 0.0
29/02:00pm 26.4 26.8 14.8 49 7.1 NE 6 15 3 8 1017.7 1015.5 0.0
29/01:30pm 26.9 27.6 15.6 50 7.1 NE 6 15 3 8 1017.8 1015.6 0.0
29/01:00pm 26.9 28.1 16.8 54 6.4 NE 6 11 3 6 1017.9 1015.7 0.0
29/12:30pm 25.9 26.6 15.6 53 6.4 NNE 6 15 3 8 1018.4 1016.2 0.0
29/12:00pm 25.6 26.3 15.6 54 6.2 ENE 6 11 3 6 1018.8 1016.6 0.0
29/11:30am 26.2 27.7 16.7 56 6.0 N 4 9 2 5 1019.3 1017.1 0.0
29/11:00am 25.2 26.5 15.2 54 6.2 SE 2 6 1 3 1019.6 1017.5 0.0
29/10:30am 24.5 25.5 15.4 57 5.6 ENE 4 9 2 5 1019.8 1017.7 0.0
29/10:00am 24.1 25.4 15.1 57 5.5 SSE 2 9 1 5 1020.1 1017.9 0.0
29/09:30am 22.2 22.9 14.6 62 4.6 SSW 4 7 2 4 1020.3 1018.1 0.0
29/09:00am 20.7 20.5 12.9 61 4.5 SSW 6 13 3 7 1020.3 1018.1 0.0
29/08:30am 19.8 20.1 13.5 67 3.7 SSW 4 9 2 5 1019.8 1017.7 0.0
29/08:00am 17.9 19.1 13.8 77 2.4 CALM 0 0 0 0 1019.7 1017.6 0.0
29/07:30am 16.1 17.7 15.0 93 0.7 CALM 0 4 0 2 1019.5 1017.3 0.0
29/07:00am 15.7 17.2 14.7 94 0.6 CALM 0 0 0 0 1019.1 1016.9 0.0
29/06:30am 16.5 17.6 15.7 95 0.5 SSW 4 7 2 4 1018.8 1016.6 0.0
29/06:00am 17.6 19.8 17.4 99 0.1 SW 2 7 1 4 1018.4 1016.2 0.0
29/05:30am 17.0 18.6 16.8 99 0.1 SSW 4 7 2 4 1018.0 1015.9 0.0
29/05:00am 15.1 16.7 14.8 98 0.2 CALM 0 4 0 2 1017.7 1015.5 0.0
29/04:30am 14.9 16.4 14.6 98 0.2 CALM 0 0 0 0 1017.6 1015.4 0.0
29/04:00am 13.8 14.8 13.2 96 0.3 CALM 0 0 0 0 1017.3 1015.1 0.0
29/03:30am 13.9 14.8 13.0 94 0.5 CALM 0 0 0 0 1017.2 1015.0 0.0
29/03:00am 15.2 16.7 14.6 96 0.4 CALM 0 0 0 0 1017.3 1015.1 0.0
29/02:30am 15.0 16.3 14.0 94 0.6 CALM 0 0 0 0 1017.3 1015.1 0.0
29/02:00am 15.4 16.8 14.4 94 0.6 CALM 0 0 0 0 1017.4 1015.2 0.0
29/01:30am 15.3 16.6 14.2 93 0.6 CALM 0 0 0 0 1017.6 1015.4 0.0
29/01:00am 15.6 17.0 14.5 93 0.6 CALM 0 0 0 0 1017.8 1015.6 0.0
29/12:30am 15.7 17.1 14.4 92 0.8 CALM 0 0 0 0 1017.7 1015.5 0.0
29/12:00am 16.4 18.2 15.4 94 0.6 CALM 0 0 0 0 1017.9 1015.7 0.0
 
Date/Time
EST
Temp
°C
App
Temp
°C
Dew
Point
Rel
Hum
%
Delta-T
°C
Wind Press
QNH
hPa
Press
MSL
hPa
Rain
since 9 am
mm
Dir
 
Spd
km/h
Gust
km/h
Spd
kts
Gust
kts
28/11:30pm 16.2 17.7 14.6 90 0.9 CALM 0 0 0 0 1018.3 1016.1 0.0
28/11:00pm 17.3 19.4 16.3 94 0.6 CALM 0 0 0 0 1018.4 1016.2 0.0
28/10:30pm 16.9 18.8 15.8 93 0.7 CALM 0 0 0 0 1018.4 1016.2 0.0
28/10:00pm 17.2 19.3 16.2 94 0.6 CALM 0 0 0 0 1018.3 1016.1 0.0
28/09:30pm 17.3 19.1 15.6 90 1.0 CALM 0 0 0 0 1018.2 1016.0 0.0
28/09:00pm 19.0 21.7 17.7 92 0.8 CALM 0 0 0 0 1017.9 1015.7 0.0
28/08:30pm 18.5 20.8 16.7 89 1.1 CALM 0 0 0 0 1017.9 1015.7 0.0
28/08:00pm 19.0 21.0 15.9 82 1.9 CALM 0 0 0 0 1017.7 1015.5 0.0
28/07:30pm 19.9 22.0 16.3 80 2.2 CALM 0 2 0 1 1017.6 1015.4 0.0
28/07:00pm 20.4 21.9 15.8 75 2.8 NNE 2 6 1 3 1017.3 1015.1 0.0
28/06:30pm 21.2 22.3 15.5 70 3.5 NNE 4 7 2 4 1017.0 1014.8 0.0
28/06:00pm 21.3 22.4 15.6 70 3.5 NNE 4 9 2 5 1016.6 1014.4 0.0
28/05:30pm 22.6 23.7 15.7 65 4.2 N 4 11 2 6 1016.5 1014.3 0.0
28/05:00pm 24.5 25.6 15.7 58 5.5 NNE 4 13 2 7 1016.1 1013.9 0.0
28/04:30pm 25.7 26.1 15.4 53 6.4 NNE 7 13 4 7 1015.9 1013.7 0.0
28/04:00pm 28.4 28.4 13.5 40 9.1 ENE 6 11 3 6 1015.7 1013.5 0.0
28/03:30pm 28.8 29.8 13.1 38 9.5 CALM 0 4 0 2 1015.5 1013.3 0.0
28/03:00pm 28.9 29.3 13.6 39 9.3 SSW 4 9 2 5 1015.5 1013.3 0.0
28/02:30pm 28.5 28.6 12.8 38 9.4 ESE 4 9 2 5 1015.8 1013.6 0.0
28/02:00pm 28.7 28.9 13.0 38 9.5 ESE 4 7 2 4 1016.0 1013.8 0.0
28/01:30pm 28.1 27.8 12.8 38 9.2 S 6 9 3 5 1016.3 1014.0 0.0
28/01:00pm 28.2 28.1 13.3 40 9.0 SE 6 15 3 8 1016.6 1014.4 0.0
28/12:30pm 27.0 26.7 13.4 43 8.2 SW 7 13 4 7 1017.0 1014.8 0.0
28/12:00pm 26.8 26.5 13.2 43 8.2 S 7 13 4 7 1017.5 1015.3 0.0
28/11:30am 26.3 26.0 13.4 45 7.8 SSW 7 13 4 7 1017.8 1015.6 0.0
28/11:00am 24.5 24.1 13.1 49 6.8 SSW 7 17 4 9 1018.2 1016.0 0.0
28/10:30am 24.0 23.6 12.9 50 6.6 S 7 15 4 8 1018.5 1016.3 0.0
28/10:00am 22.9 22.4 12.5 52 6.1 SW 7 17 4 9 1018.7 1016.5 0.0
28/09:30am 22.2 21.3 12.5 54 5.7 SSW 9 17 5 9 1018.9 1016.7 0.0
28/09:00am 21.5 20.7 12.9 58 5.0 SW 9 19 5 10 1018.9 1016.7 0.0
28/08:30am 20.5 19.6 12.7 61 4.5 S 9 17 5 9 1018.8 1016.6 0.0
28/08:00am 19.4 19.2 12.9 66 3.8 SW 6 13 3 7 1018.4 1016.2 0.0
28/07:30am 18.3 18.4 12.7 70 3.2 SW 4 9 2 5 1018.2 1016.0 0.0
28/07:00am 18.5 18.2 12.7 69 3.3 SSW 6 13 3 7 1018.0 1015.9 0.0
28/06:30am 18.8 18.7 13.4 71 3.1 SW 6 11 3 6 1017.6 1015.4 0.0
28/06:00am 19.6 19.2 14.0 70 3.3 SSW 9 19 5 10 1017.4 1015.2 0.0
28/05:30am 20.2 19.7 15.0 72 3.1 SSW 11 17 6 9 1017.0 1014.8 0.0
28/05:00am 20.5 20.7 15.7 74 2.9 SW 9 22 5 12 1016.5 1014.3 0.0
28/04:30am 20.9 21.3 16.3 75 2.8 SSW 9 15 5 8 1016.4 1014.1 0.0
28/04:00am 21.5 22.1 16.9 75 2.9 SSW 9 19 5 10 1016.0 1013.8 0.0
28/03:30am 21.7 23.1 17.3 76 2.8 SW 6 13 3 7 1015.4 1013.2 0.0
28/03:00am 22.0 22.9 17.6 76 2.8 SW 9 20 5 11 1015.4 1013.2 0.0
28/02:30am 21.6 23.2 18.2 81 2.2 SW 7 15 4 8 1015.2 1013.0 0.0
28/02:00am 20.1 22.9 18.9 93 0.8 SW 2 6 1 3 1015.3 1013.1 0.0
28/01:30am 19.0 21.9 18.3 96 0.4 CALM 0 0 0 0 1015.5 1013.3 0.0
28/01:00am 18.7 21.5 18.0 96 0.4 CALM 0 0 0 0 1015.8 1013.6 0.0
28/12:30am 18.6 21.3 17.8 95 0.5 CALM 0 0 0 0 1015.9 1013.7 0.0
28/12:00am 19.4 22.5 18.7 96 0.4 CALM 0 0 0 0 1015.8 1013.6 0.0
 
Date/Time
EST
Temp
°C
App
Temp
°C
Dew
Point
Rel
Hum
%
Delta-T
°C
Wind Press
QNH
hPa
Press
MSL
hPa
Rain
since 9 am
mm
Dir
 
Spd
km/h
Gust
km/h
Spd
kts
Gust
kts
27/11:30pm 19.4 22.5 18.6 95 0.5 CALM 0 0 0 0 1015.9 1013.7 0.0
27/11:00pm 19.9 23.1 18.9 94 0.6 CALM 0 0 0 0 1015.9 1013.7 0.0
27/10:30pm 20.6 24.3 19.9 96 0.5 CALM 0 0 0 0 1015.9 1013.7 0.0
27/10:00pm 20.9 24.8 20.4 97 0.3 CALM 0 0 0 0 1015.9 1013.7 0.0
27/09:30pm 20.8 24.6 20.1 96 0.5 CALM 0 0 0 0 1015.8 1013.6 0.0
27/09:00pm 20.9 24.7 20.2 96 0.5 CALM 0 4 0 2 1015.6 1013.4 0.0
27/08:30pm 20.7 24.4 19.9 95 0.5 CALM 0 0 0 0 1015.6 1013.4 0.0
27/08:00pm 21.3 25.3 20.6 96 0.5 CALM 0 2 0 1 1015.4 1013.2 0.0
27/07:30pm 21.3 25.3 20.6 96 0.5 CALM 0 0 0 0 1015.2 1013.0 0.0
27/07:00pm 21.5 25.2 20.8 96 0.5 N 2 6 1 3 1015.1 1012.9 0.0
27/06:30pm 21.7 25.1 20.9 95 0.5 NNE 4 7 2 4 1014.8 1012.5 0.0
27/06:00pm 22.1 25.3 20.6 91 1.0 NNE 4 9 2 5 1014.5 1012.2 0.0
27/05:30pm 22.9 25.9 20.8 88 1.4 NNE 6 13 3 7 1014.4 1012.1 0.0
27/05:00pm 24.1 26.8 20.6 81 2.3 NNE 7 13 4 7 1014.1 1011.9 0.0
27/04:30pm 25.3 28.1 20.5 75 3.2 NNE 6 13 3 7 1013.7 1011.5 0.0
27/04:00pm 26.1 28.6 20.2 70 3.9 NNE 7 13 4 7 1013.7 1011.5 0.0
27/03:30pm 26.4 28.6 20.3 69 4.1 NNE 9 17 5 9 1013.7 1011.5 0.0
27/03:00pm 26.2 28.4 19.6 67 4.4 NNE 7 15 4 8 1013.8 1011.6 0.0
27/02:30pm 26.9 28.8 19.8 65 4.7 NNE 9 17 5 9 1014.0 1011.8 0.0
27/02:00pm 28.2 30.8 20.5 63 5.2 NNE 7 13 4 7 1014.2 1012.0 0.0
27/01:30pm 27.6 29.2 19.9 63 5.1 NNE 11 17 6 9 1014.7 1012.4 0.0
27/01:00pm 27.1 28.6 19.7 64 4.9 NNE 11 17 6 9 1015.2 1013.0 0.0
27/12:30pm 27.9 30.0 20.2 63 5.2 NNE 9 17 5 9 1015.5 1013.3 0.0
27/12:00pm 26.1 27.6 19.0 65 4.6 NNE 9 17 5 9 1016.0 1013.8 0.0
27/11:30am 26.4 28.7 19.8 67 4.4 NE 7 15 4 8 1016.6 1014.4 0.0
27/11:00am 25.8 28.0 19.7 69 4.0 NE 7 13 4 7 1017.0 1014.8 0.0
27/10:30am 25.7 28.0 19.8 70 3.9 NNE 7 11 4 6 1017.3 1015.1 0.0
27/10:00am 25.4 28.1 19.5 70 3.9 NNE 4 7 2 4 1017.5 1015.3 0.0
27/09:30am 24.6 27.3 19.4 73 3.4 NNE 4 6 2 3 1017.6 1015.4 0.0
27/09:00am 23.8 27.4 19.7 78 2.7 CALM 0 4 0 2 1017.6 1015.4 0.0
27/08:30am 22.4 25.1 19.4 83 2.0 NE 4 6 2 3 1017.5 1015.3 0.0
27/08:00am 21.4 25.1 20.0 92 0.9 CALM 0 0 0 0 1017.2 1015.0 0.0
27/07:30am 18.7 21.5 17.9 95 0.5 CALM 0 0 0 0 1017.0 1014.8 0.0
27/07:00am 18.2 20.8 17.6 96 0.4 CALM 0 0 0 0 1016.7 1014.5 0.0
27/06:30am 18.3 21.0 17.7 96 0.4 CALM 0 4 0 2 1016.5 1014.3 0.0
27/06:00am 18.8 21.0 18.3 97 0.3 NNE 4 11 2 6 1016.1 1013.9 0.0
27/05:30am 18.9 20.7 18.4 97 0.3 NNE 6 7 3 4 1015.9 1013.7 0.0
27/05:00am 19.2 21.3 18.9 98 0.2 NNE 6 13 3 7 1015.9 1013.7 0.0
27/04:30am 19.3 21.2 19.0 98 0.2 NNE 7 13 4 7 1015.8 1013.6 0.0
27/04:00am 19.4 21.6 19.1 98 0.2 NNE 6 9 3 5 1015.8 1013.6 0.0
27/03:30am 19.6 21.8 19.3 98 0.2 NNE 6 13 3 7 1015.9 1013.7 0.0
27/03:00am 19.4 22.2 18.9 97 0.3 NNE 2 7 1 4 1015.8 1013.6 0.0
27/02:30am 19.5 21.5 18.8 96 0.4 NNE 6 9 3 5 1016.0 1013.8 0.0
27/02:00am 19.7 21.6 19.0 96 0.4 NNE 7 15 4 8 1016.1 1013.9 0.0
27/01:30am 19.8 21.8 19.1 96 0.5 NNE 7 13 4 7 1016.1 1013.9 0.0
27/01:00am 19.9 22.0 19.4 97 0.3 NNE 7 15 4 8 1016.3 1014.0 0.0
27/12:30am 19.7 21.7 19.2 97 0.3 NNE 7 15 4 8 1016.3 1014.0 0.0
27/12:00am 19.6 21.6 19.1 97 0.3 NNE 7 17 4 9 1016.3 1014.0 0.0
 
Date/Time
EST
Temp
°C
App
Temp
°C
Dew
Point
Rel
Hum
%
Delta-T
°C
Wind Press
QNH
hPa
Press
MSL
hPa
Rain
since 9 am
mm
Dir
 
Spd
km/h
Gust
km/h
Spd
kts
Gust
kts
26/11:30pm 19.7 21.7 19.2 97 0.3 NNE 7 13 4 7 1016.4 1014.1 0.0

Other Formats:

Comma delimited format used in spreadsheet applications
http://www.bom.gov.au/fwo/IDQ60801/IDQ60801.95293.axf

JavaScript Object Notation format (JSON) in row-major order
http://www.bom.gov.au/fwo/IDQ60801/IDQ60801.95293.json